sensor_id;sensor_type;location;lat;lon;timestamp;temperature;humidity
14985;DHT22;7588;62.368;25.902;2022-11-20T00:02:16;-3.40;99.90
14985;DHT22;7588;62.368;25.902;2022-11-20T00:04:41;-3.40;99.90
14985;DHT22;7588;62.368;25.902;2022-11-20T00:07:07;-3.40;99.90
14985;DHT22;7588;62.368;25.902;2022-11-20T00:09:33;-3.40;99.90
14985;DHT22;7588;62.368;25.902;2022-11-20T00:11:58;-3.40;99.90
14985;DHT22;7588;62.368;25.902;2022-11-20T00:14:24;-3.30;99.90
14985;DHT22;7588;62.368;25.902;2022-11-20T00:16:50;-3.30;99.90
14985;DHT22;7588;62.368;25.902;2022-11-20T00:19:15;-3.40;99.90
14985;DHT22;7588;62.368;25.902;2022-11-20T00:21:41;-3.40;99.90
14985;DHT22;7588;62.368;25.902;2022-11-20T00:24:10;-3.40;99.90
14985;DHT22;7588;62.368;25.902;2022-11-20T00:26:36;-3.40;99.90
14985;DHT22;7588;62.368;25.902;2022-11-20T00:29:02;-3.30;99.90
14985;DHT22;7588;62.368;25.902;2022-11-20T00:31:29;-3.30;99.90
14985;DHT22;7588;62.368;25.902;2022-11-20T00:33:55;-3.30;99.90
14985;DHT22;7588;62.368;25.902;2022-11-20T00:36:26;-3.30;99.90
14985;DHT22;7588;62.368;25.902;2022-11-20T00:38:59;-3.40;99.90
14985;DHT22;7588;62.368;25.902;2022-11-20T00:41:26;-3.30;99.90
14985;DHT22;7588;62.368;25.902;2022-11-20T00:43:53;-3.30;99.90
14985;DHT22;7588;62.368;25.902;2022-11-20T00:46:21;-3.40;99.90
14985;DHT22;7588;62.368;25.902;2022-11-20T00:48:48;-3.40;99.90
14985;DHT22;7588;62.368;25.902;2022-11-20T00:51:20;-3.30;99.90
14985;DHT22;7588;62.368;25.902;2022-11-20T00:53:46;-3.30;99.90
14985;DHT22;7588;62.368;25.902;2022-11-20T00:56:14;-3.30;99.90
14985;DHT22;7588;62.368;25.902;2022-11-20T00:58:42;-3.30;99.90
14985;DHT22;7588;62.368;25.902;2022-11-20T01:03:40;-3.30;99.90
14985;DHT22;7588;62.368;25.902;2022-11-20T01:08:42;-3.30;99.90
14985;DHT22;7588;62.368;25.902;2022-11-20T01:11:14;-3.30;99.90
14985;DHT22;7588;62.368;25.902;2022-11-20T01:13:41;-3.30;99.90
14985;DHT22;7588;62.368;25.902;2022-11-20T01:16:15;-3.30;99.90
14985;DHT22;7588;62.368;25.902;2022-11-20T01:18:44;-3.30;99.90
14985;DHT22;7588;62.368;25.902;2022-11-20T01:21:16;-3.30;99.90
14985;DHT22;7588;62.368;25.902;2022-11-20T01:23:43;-3.30;99.90
14985;DHT22;7588;62.368;25.902;2022-11-20T01:26:15;-3.30;99.90
14985;DHT22;7588;62.368;25.902;2022-11-20T01:28:42;-3.40;99.90
14985;DHT22;7588;62.368;25.902;2022-11-20T01:31:22;-3.40;99.90
14985;DHT22;7588;62.368;25.902;2022-11-20T01:33:50;-3.40;99.90
14985;DHT22;7588;62.368;25.902;2022-11-20T01:36:17;-3.40;99.90
14985;DHT22;7588;62.368;25.902;2022-11-20T01:38:44;-3.50;99.90
14985;DHT22;7588;62.368;25.902;2022-11-20T01:41:11;-3.50;99.90
14985;DHT22;7588;62.368;25.902;2022-11-20T01:43:57;-3.50;99.90
14985;DHT22;7588;62.368;25.902;2022-11-20T01:46:23;-3.60;99.90
14985;DHT22;7588;62.368;25.902;2022-11-20T01:48:56;-3.60;99.90
14985;DHT22;7588;62.368;25.902;2022-11-20T01:51:33;-3.60;99.90
14985;DHT22;7588;62.368;25.902;2022-11-20T01:54:04;-3.60;99.90
14985;DHT22;7588;62.368;25.902;2022-11-20T01:56:33;-3.70;99.90
14985;DHT22;7588;62.368;25.902;2022-11-20T01:59:03;-3.70;99.90
14985;DHT22;7588;62.368;25.902;2022-11-20T02:01:30;-3.60;99.90
14985;DHT22;7588;62.368;25.902;2022-11-20T02:03:56;-3.70;99.90
14985;DHT22;7588;62.368;25.902;2022-11-20T02:09:28;-3.70;99.90
14985;DHT22;7588;62.368;25.902;2022-11-20T02:11:55;-3.70;99.90
14985;DHT22;7588;62.368;25.902;2022-11-20T02:14:22;-3.70;99.90
14985;DHT22;7588;62.368;25.902;2022-11-20T02:16:49;-3.60;99.90
14985;DHT22;7588;62.368;25.902;2022-11-20T02:19:35;-3.60;99.90
14985;DHT22;7588;62.368;25.902;2022-11-20T02:22:25;-3.60;99.90
14985;DHT22;7588;62.368;25.902;2022-11-20T02:24:52;-3.60;99.90
14985;DHT22;7588;62.368;25.902;2022-11-20T02:27:18;-3.60;99.90
14985;DHT22;7588;62.368;25.902;2022-11-20T02:30:05;-3.60;99.90
14985;DHT22;7588;62.368;25.902;2022-11-20T02:32:37;-3.60;99.90
14985;DHT22;7588;62.368;25.902;2022-11-20T02:35:08;-3.60;99.90
14985;DHT22;7588;62.368;25.902;2022-11-20T02:37:37;-3.60;99.90
14985;DHT22;7588;62.368;25.902;2022-11-20T02:40:04;-3.70;99.90
14985;DHT22;7588;62.368;25.902;2022-11-20T02:42:30;-3.70;99.90
14985;DHT22;7588;62.368;25.902;2022-11-20T02:44:56;-3.70;99.90
14985;DHT22;7588;62.368;25.902;2022-11-20T02:47:21;-3.70;99.90
14985;DHT22;7588;62.368;25.902;2022-11-20T02:49:47;-3.70;99.90
14985;DHT22;7588;62.368;25.902;2022-11-20T02:52:13;-3.70;99.90
14985;DHT22;7588;62.368;25.902;2022-11-20T02:54:39;-3.70;99.90
14985;DHT22;7588;62.368;25.902;2022-11-20T02:57:04;-3.70;99.90
14985;DHT22;7588;62.368;25.902;2022-11-20T02:59:33;-3.60;99.90
14985;DHT22;7588;62.368;25.902;2022-11-20T03:01:59;-3.70;99.90
14985;DHT22;7588;62.368;25.902;2022-11-20T03:04:24;-3.80;99.90
14985;DHT22;7588;62.368;25.902;2022-11-20T03:06:50;-3.80;99.90
14985;DHT22;7588;62.368;25.902;2022-11-20T03:09:16;-3.80;99.90
14985;DHT22;7588;62.368;25.902;2022-11-20T03:11:41;-3.90;99.90
14985;DHT22;7588;62.368;25.902;2022-11-20T03:14:07;-3.90;99.90
14985;DHT22;7588;62.368;25.902;2022-11-20T03:16:33;-4.00;99.90
14985;DHT22;7588;62.368;25.902;2022-11-20T03:18:59;-4.00;99.90
14985;DHT22;7588;62.368;25.902;2022-11-20T03:21:25;-4.00;99.90
14985;DHT22;7588;62.368;25.902;2022-11-20T03:23:51;-4.00;99.90
14985;DHT22;7588;62.368;25.902;2022-11-20T03:26:22;-4.00;99.90
14985;DHT22;7588;62.368;25.902;2022-11-20T03:28:50;-4.00;99.90
14985;DHT22;7588;62.368;25.902;2022-11-20T03:31:19;-4.00;99.90
14985;DHT22;7588;62.368;25.902;2022-11-20T03:33:45;-4.00;99.90
14985;DHT22;7588;62.368;25.902;2022-11-20T03:36:13;-4.00;99.90
14985;DHT22;7588;62.368;25.902;2022-11-20T03:38:40;-4.00;99.90
14985;DHT22;7588;62.368;25.902;2022-11-20T03:41:08;-4.00;99.90
14985;DHT22;7588;62.368;25.902;2022-11-20T03:43:34;-4.00;99.90
14985;DHT22;7588;62.368;25.902;2022-11-20T03:46:00;-4.00;99.90
14985;DHT22;7588;62.368;25.902;2022-11-20T03:48:26;-3.90;99.90
14985;DHT22;7588;62.368;25.902;2022-11-20T03:50:53;-4.00;99.90
14985;DHT22;7588;62.368;25.902;2022-11-20T03:53:31;-4.00;99.90
14985;DHT22;7588;62.368;25.902;2022-11-20T03:55:57;-4.00;99.90
14985;DHT22;7588;62.368;25.902;2022-11-20T03:58:22;-4.00;99.90
14985;DHT22;7588;62.368;25.902;2022-11-20T04:00:48;-4.00;99.90
14985;DHT22;7588;62.368;25.902;2022-11-20T04:03:14;-4.00;99.90
14985;DHT22;7588;62.368;25.902;2022-11-20T04:05:39;-4.10;99.90
14985;DHT22;7588;62.368;25.902;2022-11-20T04:08:05;-4.10;99.90
14985;DHT22;7588;62.368;25.902;2022-11-20T04:10:31;-4.10;99.90
14985;DHT22;7588;62.368;25.902;2022-11-20T04:12:57;-4.10;99.90
14985;DHT22;7588;62.368;25.902;2022-11-20T04:15:22;-4.10;99.90
14985;DHT22;7588;62.368;25.902;2022-11-20T04:17:48;-4.10;99.90
14985;DHT22;7588;62.368;25.902;2022-11-20T04:20:14;-4.10;99.90
14985;DHT22;7588;62.368;25.902;2022-11-20T04:22:40;-4.10;99.90
14985;DHT22;7588;62.368;25.902;2022-11-20T04:25:06;-4.00;99.90
14985;DHT22;7588;62.368;25.902;2022-11-20T04:27:31;-4.00;99.90
14985;DHT22;7588;62.368;25.902;2022-11-20T04:29:57;-4.00;99.90
14985;DHT22;7588;62.368;25.902;2022-11-20T04:32:23;-4.00;99.90
14985;DHT22;7588;62.368;25.902;2022-11-20T04:34:49;-4.00;99.90
14985;DHT22;7588;62.368;25.902;2022-11-20T04:37:14;-4.00;99.90
14985;DHT22;7588;62.368;25.902;2022-11-20T04:39:40;-4.00;99.90
14985;DHT22;7588;62.368;25.902;2022-11-20T04:42:07;-4.00;99.90
14985;DHT22;7588;62.368;25.902;2022-11-20T04:44:52;-4.00;99.90
14985;DHT22;7588;62.368;25.902;2022-11-20T04:47:18;-4.00;99.90
14985;DHT22;7588;62.368;25.902;2022-11-20T04:49:43;-4.00;99.90
14985;DHT22;7588;62.368;25.902;2022-11-20T04:52:09;-4.00;99.90
14985;DHT22;7588;62.368;25.902;2022-11-20T04:54:35;-4.00;99.90
14985;DHT22;7588;62.368;25.902;2022-11-20T04:57:00;-4.00;99.90
14985;DHT22;7588;62.368;25.902;2022-11-20T04:59:26;-4.00;99.90
14985;DHT22;7588;62.368;25.902;2022-11-20T05:01:52;-4.00;99.90
14985;DHT22;7588;62.368;25.902;2022-11-20T05:04:18;-4.00;99.90
14985;DHT22;7588;62.368;25.902;2022-11-20T05:06:43;-4.00;99.90
14985;DHT22;7588;62.368;25.902;2022-11-20T05:09:11;-4.00;99.90
14985;DHT22;7588;62.368;25.902;2022-11-20T05:11:37;-4.00;99.90
14985;DHT22;7588;62.368;25.902;2022-11-20T05:14:02;-4.00;99.90
14985;DHT22;7588;62.368;25.902;2022-11-20T05:16:28;-4.00;99.90
14985;DHT22;7588;62.368;25.902;2022-11-20T05:18:55;-4.00;99.90
14985;DHT22;7588;62.368;25.902;2022-11-20T05:21:21;-4.00;99.90
14985;DHT22;7588;62.368;25.902;2022-11-20T05:23:47;-4.10;99.90
14985;DHT22;7588;62.368;25.902;2022-11-20T05:26:16;-4.10;99.90
14985;DHT22;7588;62.368;25.902;2022-11-20T05:28:42;-4.10;99.90
14985;DHT22;7588;62.368;25.902;2022-11-20T05:31:10;-4.10;99.90
14985;DHT22;7588;62.368;25.902;2022-11-20T05:33:39;-4.20;99.90
14985;DHT22;7588;62.368;25.902;2022-11-20T05:36:05;-4.30;99.90
14985;DHT22;7588;62.368;25.902;2022-11-20T05:38:31;-4.30;99.90
14985;DHT22;7588;62.368;25.902;2022-11-20T05:41:12;-4.30;99.90
14985;DHT22;7588;62.368;25.902;2022-11-20T05:43:40;-4.30;99.90
14985;DHT22;7588;62.368;25.902;2022-11-20T05:46:08;-4.30;99.90
14985;DHT22;7588;62.368;25.902;2022-11-20T05:48:34;-4.30;99.90
14985;DHT22;7588;62.368;25.902;2022-11-20T05:51:02;-4.30;99.90
14985;DHT22;7588;62.368;25.902;2022-11-20T05:53:28;-4.40;99.90
14985;DHT22;7588;62.368;25.902;2022-11-20T05:56:09;-4.50;99.90
14985;DHT22;7588;62.368;25.902;2022-11-20T05:58:35;-4.40;99.90
14985;DHT22;7588;62.368;25.902;2022-11-20T06:03:30;-4.40;99.90
14985;DHT22;7588;62.368;25.902;2022-11-20T06:05:58;-4.40;99.90
14985;DHT22;7588;62.368;25.902;2022-11-20T06:08:23;-4.30;99.90
14985;DHT22;7588;62.368;25.902;2022-11-20T06:10:49;-4.30;99.90
14985;DHT22;7588;62.368;25.902;2022-11-20T06:13:15;-4.40;99.90
14985;DHT22;7588;62.368;25.902;2022-11-20T06:15:40;-4.30;99.90
14985;DHT22;7588;62.368;25.902;2022-11-20T06:18:06;-4.30;99.90
14985;DHT22;7588;62.368;25.902;2022-11-20T06:20:32;-4.40;99.90
14985;DHT22;7588;62.368;25.902;2022-11-20T06:22:57;-4.40;99.90
14985;DHT22;7588;62.368;25.902;2022-11-20T06:25:23;-4.40;99.90
14985;DHT22;7588;62.368;25.902;2022-11-20T06:27:49;-4.30;99.90
14985;DHT22;7588;62.368;25.902;2022-11-20T06:30:15;-4.30;99.90
14985;DHT22;7588;62.368;25.902;2022-11-20T06:32:40;-4.40;99.90
14985;DHT22;7588;62.368;25.902;2022-11-20T06:35:07;-4.40;99.90
14985;DHT22;7588;62.368;25.902;2022-11-20T06:37:32;-4.40;99.90
14985;DHT22;7588;62.368;25.902;2022-11-20T06:39:58;-4.40;99.90
14985;DHT22;7588;62.368;25.902;2022-11-20T06:42:24;-4.40;99.90
14985;DHT22;7588;62.368;25.902;2022-11-20T06:44:49;-4.50;99.90
14985;DHT22;7588;62.368;25.902;2022-11-20T06:47:15;-4.50;99.90
14985;DHT22;7588;62.368;25.902;2022-11-20T06:49:41;-4.50;99.90
14985;DHT22;7588;62.368;25.902;2022-11-20T06:52:07;-4.50;99.90
14985;DHT22;7588;62.368;25.902;2022-11-20T06:54:32;-4.40;99.90
14985;DHT22;7588;62.368;25.902;2022-11-20T06:56:58;-4.50;99.90
14985;DHT22;7588;62.368;25.902;2022-11-20T06:59:24;-4.40;99.90
14985;DHT22;7588;62.368;25.902;2022-11-20T07:01:50;-4.50;99.90
14985;DHT22;7588;62.368;25.902;2022-11-20T07:04:15;-4.50;99.90
14985;DHT22;7588;62.368;25.902;2022-11-20T07:06:41;-4.50;99.90
14985;DHT22;7588;62.368;25.902;2022-11-20T07:09:07;-4.50;99.90
14985;DHT22;7588;62.368;25.902;2022-11-20T07:11:32;-4.60;99.90
14985;DHT22;7588;62.368;25.902;2022-11-20T07:13:58;-4.60;99.90
14985;DHT22;7588;62.368;25.902;2022-11-20T07:16:24;-4.50;99.90
14985;DHT22;7588;62.368;25.902;2022-11-20T07:18:49;-4.40;99.90
14985;DHT22;7588;62.368;25.902;2022-11-20T07:21:15;-4.40;99.90
14985;DHT22;7588;62.368;25.902;2022-11-20T07:23:41;-4.40;99.90
14985;DHT22;7588;62.368;25.902;2022-11-20T07:26:09;-4.40;99.90
14985;DHT22;7588;62.368;25.902;2022-11-20T07:28:35;-4.30;99.90
14985;DHT22;7588;62.368;25.902;2022-11-20T07:31:02;-4.20;99.90
14985;DHT22;7588;62.368;25.902;2022-11-20T07:33:28;-4.20;99.90
14985;DHT22;7588;62.368;25.902;2022-11-20T07:35:53;-4.10;99.90
14985;DHT22;7588;62.368;25.902;2022-11-20T07:38:19;-4.10;99.90
14985;DHT22;7588;62.368;25.902;2022-11-20T07:40:45;-4.00;99.90
14985;DHT22;7588;62.368;25.902;2022-11-20T07:43:11;-4.00;99.90
14985;DHT22;7588;62.368;25.902;2022-11-20T07:45:36;-3.90;99.90
14985;DHT22;7588;62.368;25.902;2022-11-20T07:48:02;-4.00;99.90
14985;DHT22;7588;62.368;25.902;2022-11-20T07:50:28;-4.00;99.90
14985;DHT22;7588;62.368;25.902;2022-11-20T07:53:01;-4.00;99.90
14985;DHT22;7588;62.368;25.902;2022-11-20T07:55:28;-4.00;99.90
14985;DHT22;7588;62.368;25.902;2022-11-20T07:57:57;-4.10;99.90
14985;DHT22;7588;62.368;25.902;2022-11-20T08:00:23;-4.20;99.90
14985;DHT22;7588;62.368;25.902;2022-11-20T08:02:49;-4.10;99.90
14985;DHT22;7588;62.368;25.902;2022-11-20T08:05:15;-4.10;99.90
14985;DHT22;7588;62.368;25.902;2022-11-20T08:07:42;-4.10;99.90
14985;DHT22;7588;62.368;25.902;2022-11-20T08:10:10;-4.00;99.90
14985;DHT22;7588;62.368;25.902;2022-11-20T08:12:42;-4.00;99.90
14985;DHT22;7588;62.368;25.902;2022-11-20T08:15:27;-4.00;99.90
14985;DHT22;7588;62.368;25.902;2022-11-20T08:17:59;-4.00;99.90
14985;DHT22;7588;62.368;25.902;2022-11-20T08:20:25;-3.90;99.90
14985;DHT22;7588;62.368;25.902;2022-11-20T08:22:51;-3.90;99.90
14985;DHT22;7588;62.368;25.902;2022-11-20T08:25:16;-3.80;99.90
14985;DHT22;7588;62.368;25.902;2022-11-20T08:27:42;-3.80;99.90
14985;DHT22;7588;62.368;25.902;2022-11-20T08:30:08;-3.70;99.90
14985;DHT22;7588;62.368;25.902;2022-11-20T08:32:35;-3.70;99.90
14985;DHT22;7588;62.368;25.902;2022-11-20T08:35:02;-3.60;99.90
14985;DHT22;7588;62.368;25.902;2022-11-20T08:37:28;-3.50;99.90
14985;DHT22;7588;62.368;25.902;2022-11-20T08:39:54;-3.50;99.90
14985;DHT22;7588;62.368;25.902;2022-11-20T08:42:22;-3.50;99.90
14985;DHT22;7588;62.368;25.902;2022-11-20T08:44:48;-3.50;99.90
14985;DHT22;7588;62.368;25.902;2022-11-20T08:47:13;-3.50;99.90
14985;DHT22;7588;62.368;25.902;2022-11-20T08:49:39;-3.60;99.90
14985;DHT22;7588;62.368;25.902;2022-11-20T08:52:05;-3.60;99.90
14985;DHT22;7588;62.368;25.902;2022-11-20T08:54:31;-3.70;99.90
14985;DHT22;7588;62.368;25.902;2022-11-20T08:56:58;-3.70;99.90
14985;DHT22;7588;62.368;25.902;2022-11-20T08:59:23;-3.70;99.90
14985;DHT22;7588;62.368;25.902;2022-11-20T09:01:49;-3.70;99.90
14985;DHT22;7588;62.368;25.902;2022-11-20T09:04:15;-3.60;99.90
14985;DHT22;7588;62.368;25.902;2022-11-20T09:06:41;-3.70;99.90
14985;DHT22;7588;62.368;25.902;2022-11-20T09:09:07;-3.70;99.90
14985;DHT22;7588;62.368;25.902;2022-11-20T09:11:34;-3.80;99.90
14985;DHT22;7588;62.368;25.902;2022-11-20T09:14:01;-4.00;99.90
14985;DHT22;7588;62.368;25.902;2022-11-20T09:16:28;-4.00;99.90
14985;DHT22;7588;62.368;25.902;2022-11-20T09:18:53;-4.00;99.90
14985;DHT22;7588;62.368;25.902;2022-11-20T09:21:19;-4.10;99.90
14985;DHT22;7588;62.368;25.902;2022-11-20T09:23:45;-4.10;99.90
14985;DHT22;7588;62.368;25.902;2022-11-20T09:26:13;-4.20;99.90
14985;DHT22;7588;62.368;25.902;2022-11-20T09:28:39;-4.20;99.90
14985;DHT22;7588;62.368;25.902;2022-11-20T09:31:17;-4.30;99.90
14985;DHT22;7588;62.368;25.902;2022-11-20T09:33:45;-4.40;99.90
14985;DHT22;7588;62.368;25.902;2022-11-20T09:36:10;-4.40;99.90
14985;DHT22;7588;62.368;25.902;2022-11-20T09:38:36;-4.40;99.90
14985;DHT22;7588;62.368;25.902;2022-11-20T09:41:06;-4.40;99.90
14985;DHT22;7588;62.368;25.902;2022-11-20T09:46:40;-4.40;99.90
14985;DHT22;7588;62.368;25.902;2022-11-20T09:49:35;-4.40;99.90
14985;DHT22;7588;62.368;25.902;2022-11-20T09:54:36;-4.30;99.90
14985;DHT22;7588;62.368;25.902;2022-11-20T09:57:25;-4.30;99.90
14985;DHT22;7588;62.368;25.902;2022-11-20T09:59:56;-4.40;99.90
14985;DHT22;7588;62.368;25.902;2022-11-20T10:02:28;-4.30;99.90
14985;DHT22;7588;62.368;25.902;2022-11-20T10:05:45;-4.30;99.90
14985;DHT22;7588;62.368;25.902;2022-11-20T10:08:29;-4.30;99.90
14985;DHT22;7588;62.368;25.902;2022-11-20T10:11:23;-4.30;99.90
14985;DHT22;7588;62.368;25.902;2022-11-20T10:19:14;-4.30;99.90
14985;DHT22;7588;62.368;25.902;2022-11-20T10:30:06;-4.10;99.90
14985;DHT22;7588;62.368;25.902;2022-11-20T10:32:48;-4.10;99.90
14985;DHT22;7588;62.368;25.902;2022-11-20T10:35:26;-4.00;99.90
14985;DHT22;7588;62.368;25.902;2022-11-20T10:37:58;-3.90;99.90
14985;DHT22;7588;62.368;25.902;2022-11-20T10:40:44;-3.90;99.90
14985;DHT22;7588;62.368;25.902;2022-11-20T10:43:21;-3.90;99.90
14985;DHT22;7588;62.368;25.902;2022-11-20T10:48:27;-3.80;99.90
14985;DHT22;7588;62.368;25.902;2022-11-20T10:51:13;-3.80;99.90
14985;DHT22;7588;62.368;25.902;2022-11-20T10:59:18;-3.80;99.90
14985;DHT22;7588;62.368;25.902;2022-11-20T11:01:47;-3.80;99.90
14985;DHT22;7588;62.368;25.902;2022-11-20T11:04:46;-3.70;99.90
14985;DHT22;7588;62.368;25.902;2022-11-20T11:09:52;-3.50;99.90
14985;DHT22;7588;62.368;25.902;2022-11-20T11:12:21;-3.50;99.90
14985;DHT22;7588;62.368;25.902;2022-11-20T11:14:50;-3.40;99.90
14985;DHT22;7588;62.368;25.902;2022-11-20T11:17:34;-3.30;99.90
14985;DHT22;7588;62.368;25.902;2022-11-20T11:20:22;-3.20;99.90
14985;DHT22;7588;62.368;25.902;2022-11-20T11:22:52;-3.20;99.90
14985;DHT22;7588;62.368;25.902;2022-11-20T11:25:34;-3.10;99.90
14985;DHT22;7588;62.368;25.902;2022-11-20T11:30:44;-3.20;99.90
14985;DHT22;7588;62.368;25.902;2022-11-20T11:33:17;-3.30;99.90
14985;DHT22;7588;62.368;25.902;2022-11-20T11:35:47;-3.40;99.90
14985;DHT22;7588;62.368;25.902;2022-11-20T11:38:16;-3.50;99.90
14985;DHT22;7588;62.368;25.902;2022-11-20T11:40:46;-3.60;99.90
14985;DHT22;7588;62.368;25.902;2022-11-20T11:43:52;-3.60;99.90
14985;DHT22;7588;62.368;25.902;2022-11-20T11:46:36;-3.60;99.90
14985;DHT22;7588;62.368;25.902;2022-11-20T11:52:09;-3.90;99.90
14985;DHT22;7588;62.368;25.902;2022-11-20T11:57:28;-4.00;99.90
14985;DHT22;7588;62.368;25.902;2022-11-20T12:02:42;-4.20;99.90
14985;DHT22;7588;62.368;25.902;2022-11-20T12:05:24;-4.20;99.90
14985;DHT22;7588;62.368;25.902;2022-11-20T12:10:55;-4.30;99.90
14985;DHT22;7588;62.368;25.902;2022-11-20T12:16:14;-4.10;99.90
14985;DHT22;7588;62.368;25.902;2022-11-20T12:18:42;-4.10;99.90
14985;DHT22;7588;62.368;25.902;2022-11-20T12:21:18;-4.10;99.90
14985;DHT22;7588;62.368;25.902;2022-11-20T12:35:20;-4.00;99.90
14985;DHT22;7588;62.368;25.902;2022-11-20T12:43:21;-4.00;99.90
14985;DHT22;7588;62.368;25.902;2022-11-20T12:59:48;-4.10;99.90
14985;DHT22;7588;62.368;25.902;2022-11-20T13:02:23;-4.10;99.90
14985;DHT22;7588;62.368;25.902;2022-11-20T13:07:55;-4.20;99.90
14985;DHT22;7588;62.368;25.902;2022-11-20T13:13:14;-4.10;99.90
14985;DHT22;7588;62.368;25.902;2022-11-20T13:15:56;-4.20;99.90
14985;DHT22;7588;62.368;25.902;2022-11-20T13:18:23;-4.20;99.90
14985;DHT22;7588;62.368;25.902;2022-11-20T13:20:48;-4.20;99.90
14985;DHT22;7588;62.368;25.902;2022-11-20T13:23:28;-4.20;99.90
14985;DHT22;7588;62.368;25.902;2022-11-20T13:26:18;-4.20;99.90
14985;DHT22;7588;62.368;25.902;2022-11-20T13:28:46;-4.20;99.90
14985;DHT22;7588;62.368;25.902;2022-11-20T13:31:31;-4.30;99.90
14985;DHT22;7588;62.368;25.902;2022-11-20T13:33:59;-4.20;99.90
14985;DHT22;7588;62.368;25.902;2022-11-20T13:36:31;-4.20;99.90
14985;DHT22;7588;62.368;25.902;2022-11-20T13:38:58;-4.30;99.90
14985;DHT22;7588;62.368;25.902;2022-11-20T13:46:42;-4.30;99.90
14985;DHT22;7588;62.368;25.902;2022-11-20T13:51:47;-4.40;99.90
14985;DHT22;7588;62.368;25.902;2022-11-20T14:00:19;-4.40;99.90
14985;DHT22;7588;62.368;25.902;2022-11-20T14:05:37;-4.40;99.90
14985;DHT22;7588;62.368;25.902;2022-11-20T14:08:06;-4.40;99.90
14985;DHT22;7588;62.368;25.902;2022-11-20T14:10:35;-4.40;99.90
14985;DHT22;7588;62.368;25.902;2022-11-20T14:13:31;-4.40;99.90
14985;DHT22;7588;62.368;25.902;2022-11-20T14:15:57;-4.50;99.90
14985;DHT22;7588;62.368;25.902;2022-11-20T14:18:26;-4.50;99.90
14985;DHT22;7588;62.368;25.902;2022-11-20T14:20:52;-4.50;99.90
14985;DHT22;7588;62.368;25.902;2022-11-20T14:23:28;-4.50;99.90
14985;DHT22;7588;62.368;25.902;2022-11-20T14:25:54;-4.40;99.90
14985;DHT22;7588;62.368;25.902;2022-11-20T14:28:28;-4.50;99.90
14985;DHT22;7588;62.368;25.902;2022-11-20T14:30:56;-4.50;99.90
14985;DHT22;7588;62.368;25.902;2022-11-20T14:33:23;-4.50;99.90
14985;DHT22;7588;62.368;25.902;2022-11-20T14:35:57;-4.50;99.90
14985;DHT22;7588;62.368;25.902;2022-11-20T14:38:28;-4.50;99.90
14985;DHT22;7588;62.368;25.902;2022-11-20T14:40:54;-4.50;99.90
14985;DHT22;7588;62.368;25.902;2022-11-20T14:43:25;-4.50;99.90
14985;DHT22;7588;62.368;25.902;2022-11-20T14:46:03;-4.50;99.90
14985;DHT22;7588;62.368;25.902;2022-11-20T14:48:47;-4.50;99.90
14985;DHT22;7588;62.368;25.902;2022-11-20T14:51:46;-4.50;99.90
14985;DHT22;7588;62.368;25.902;2022-11-20T14:54:17;-4.40;99.90
14985;DHT22;7588;62.368;25.902;2022-11-20T14:56:54;-4.40;99.90
14985;DHT22;7588;62.368;25.902;2022-11-20T14:59:25;-4.40;99.90
14985;DHT22;7588;62.368;25.902;2022-11-20T15:02:06;-4.40;99.90
14985;DHT22;7588;62.368;25.902;2022-11-20T15:04:47;-4.40;99.90
14985;DHT22;7588;62.368;25.902;2022-11-20T15:07:24;-4.40;99.90
14985;DHT22;7588;62.368;25.902;2022-11-20T15:12:47;-4.30;99.90
14985;DHT22;7588;62.368;25.902;2022-11-20T15:15:19;-4.30;99.90
14985;DHT22;7588;62.368;25.902;2022-11-20T15:17:46;-4.30;99.90
14985;DHT22;7588;62.368;25.902;2022-11-20T15:20:14;-4.40;99.90
14985;DHT22;7588;62.368;25.902;2022-11-20T15:22:41;-4.40;99.90
14985;DHT22;7588;62.368;25.902;2022-11-20T15:25:17;-4.40;99.90
14985;DHT22;7588;62.368;25.902;2022-11-20T15:27:44;-4.40;99.90
14985;DHT22;7588;62.368;25.902;2022-11-20T15:30:18;-4.40;99.90
14985;DHT22;7588;62.368;25.902;2022-11-20T15:32:45;-4.30;99.90
14985;DHT22;7588;62.368;25.902;2022-11-20T15:35:12;-4.30;99.90
14985;DHT22;7588;62.368;25.902;2022-11-20T15:37:39;-4.30;99.90
14985;DHT22;7588;62.368;25.902;2022-11-20T15:40:07;-4.30;99.90
14985;DHT22;7588;62.368;25.902;2022-11-20T15:42:34;-4.30;99.90
14985;DHT22;7588;62.368;25.902;2022-11-20T15:45:01;-4.30;99.90
14985;DHT22;7588;62.368;25.902;2022-11-20T15:47:32;-4.30;99.90
14985;DHT22;7588;62.368;25.902;2022-11-20T15:49:58;-4.20;99.90
14985;DHT22;7588;62.368;25.902;2022-11-20T15:52:24;-4.30;99.90
14985;DHT22;7588;62.368;25.902;2022-11-20T15:54:50;-4.30;99.90
14985;DHT22;7588;62.368;25.902;2022-11-20T15:57:15;-4.20;99.90
14985;DHT22;7588;62.368;25.902;2022-11-20T15:59:41;-4.20;99.90
14985;DHT22;7588;62.368;25.902;2022-11-20T16:02:16;-4.20;99.90
14985;DHT22;7588;62.368;25.902;2022-11-20T16:04:42;-4.10;99.90
14985;DHT22;7588;62.368;25.902;2022-11-20T16:07:08;-4.10;99.90
14985;DHT22;7588;62.368;25.902;2022-11-20T16:09:33;-4.10;99.90
14985;DHT22;7588;62.368;25.902;2022-11-20T16:11:59;-4.10;99.90
14985;DHT22;7588;62.368;25.902;2022-11-20T16:14:28;-4.00;99.90
14985;DHT22;7588;62.368;25.902;2022-11-20T16:17:12;-4.00;99.90
14985;DHT22;7588;62.368;25.902;2022-11-20T16:19:38;-4.00;99.90
14985;DHT22;7588;62.368;25.902;2022-11-20T16:22:04;-4.00;99.90
14985;DHT22;7588;62.368;25.902;2022-11-20T16:24:30;-4.00;99.90
14985;DHT22;7588;62.368;25.902;2022-11-20T16:26:56;-4.00;99.90
14985;DHT22;7588;62.368;25.902;2022-11-20T16:29:22;-4.00;99.90
14985;DHT22;7588;62.368;25.902;2022-11-20T16:31:48;-4.10;99.90
14985;DHT22;7588;62.368;25.902;2022-11-20T16:34:16;-4.00;99.90
14985;DHT22;7588;62.368;25.902;2022-11-20T16:36:43;-4.00;99.90
14985;DHT22;7588;62.368;25.902;2022-11-20T16:39:10;-4.00;99.90
14985;DHT22;7588;62.368;25.902;2022-11-20T16:41:37;-4.00;99.90
14985;DHT22;7588;62.368;25.902;2022-11-20T16:44:07;-4.00;99.90
14985;DHT22;7588;62.368;25.902;2022-11-20T16:46:34;-4.00;99.90
14985;DHT22;7588;62.368;25.902;2022-11-20T16:49:03;-3.90;99.90
14985;DHT22;7588;62.368;25.902;2022-11-20T16:51:31;-3.90;99.90
14985;DHT22;7588;62.368;25.902;2022-11-20T16:54:01;-3.90;99.90
14985;DHT22;7588;62.368;25.902;2022-11-20T16:56:27;-3.90;99.90
14985;DHT22;7588;62.368;25.902;2022-11-20T16:58:55;-3.90;99.90
14985;DHT22;7588;62.368;25.902;2022-11-20T17:01:22;-3.90;99.90
14985;DHT22;7588;62.368;25.902;2022-11-20T17:06:25;-3.80;99.90
14985;DHT22;7588;62.368;25.902;2022-11-20T17:08:53;-3.80;99.90
14985;DHT22;7588;62.368;25.902;2022-11-20T17:11:19;-3.90;99.90
14985;DHT22;7588;62.368;25.902;2022-11-20T17:13:45;-3.80;99.90
14985;DHT22;7588;62.368;25.902;2022-11-20T17:16:16;-3.80;99.90
14985;DHT22;7588;62.368;25.902;2022-11-20T17:18:43;-3.70;99.90
14985;DHT22;7588;62.368;25.902;2022-11-20T17:21:09;-3.80;99.90
14985;DHT22;7588;62.368;25.902;2022-11-20T17:23:41;-3.80;99.90
14985;DHT22;7588;62.368;25.902;2022-11-20T17:26:14;-3.80;99.90
14985;DHT22;7588;62.368;25.902;2022-11-20T17:28:44;-3.70;99.90
14985;DHT22;7588;62.368;25.902;2022-11-20T17:31:15;-3.70;99.90
14985;DHT22;7588;62.368;25.902;2022-11-20T17:33:43;-3.70;99.90
14985;DHT22;7588;62.368;25.902;2022-11-20T17:36:14;-3.70;99.90
14985;DHT22;7588;62.368;25.902;2022-11-20T17:38:41;-3.70;99.90
14985;DHT22;7588;62.368;25.902;2022-11-20T17:41:07;-3.70;99.90